sensor_id;sensor_type;location;lat;lon;timestamp;P1;durP1;ratioP1;P2;durP2;ratioP2
70920;SDS011;58572;48.110;19.838;2023-08-31T00:01:00;4.78;;;3.42;;
70920;SDS011;58572;48.110;19.838;2023-08-31T00:03:36;7.90;;;3.45;;
70920;SDS011;58572;48.110;19.838;2023-08-31T00:06:20;6.30;;;3.85;;
70920;SDS011;58572;48.110;19.838;2023-08-31T00:09:07;5.97;;;3.80;;
70920;SDS011;58572;48.110;19.838;2023-08-31T00:11:46;5.20;;;3.67;;
70920;SDS011;58572;48.110;19.838;2023-08-31T00:14:21;6.40;;;3.70;;
70920;SDS011;58572;48.110;19.838;2023-08-31T00:17:00;5.25;;;3.90;;
70920;SDS011;58572;48.110;19.838;2023-08-31T00:19:33;5.38;;;3.50;;
70920;SDS011;58572;48.110;19.838;2023-08-31T00:22:07;5.68;;;3.42;;
70920;SDS011;58572;48.110;19.838;2023-08-31T00:24:46;6.30;;;3.35;;
70920;SDS011;58572;48.110;19.838;2023-08-31T00:27:21;7.00;;;3.47;;
70920;SDS011;58572;48.110;19.838;2023-08-31T00:29:59;5.55;;;3.55;;
70920;SDS011;58572;48.110;19.838;2023-08-31T00:32:33;7.50;;;3.97;;
70920;SDS011;58572;48.110;19.838;2023-08-31T00:35:06;5.38;;;3.50;;
70920;SDS011;58572;48.110;19.838;2023-08-31T00:37:40;5.90;;;3.50;;
70920;SDS011;58572;48.110;19.838;2023-08-31T00:40:18;6.30;;;3.30;;
70920;SDS011;58572;48.110;19.838;2023-08-31T00:42:51;8.40;;;3.70;;
70920;SDS011;58572;48.110;19.838;2023-08-31T00:45:23;5.25;;;3.30;;
70920;SDS011;58572;48.110;19.838;2023-08-31T00:48:03;5.97;;;3.90;;
70920;SDS011;58572;48.110;19.838;2023-08-31T00:50:49;5.85;;;3.38;;
70920;SDS011;58572;48.110;19.838;2023-08-31T00:53:23;6.72;;;3.60;;
70920;SDS011;58572;48.110;19.838;2023-08-31T00:56:05;5.05;;;3.28;;
70920;SDS011;58572;48.110;19.838;2023-08-31T00:58:39;5.35;;;3.38;;
70920;SDS011;58572;48.110;19.838;2023-08-31T01:01:15;6.65;;;3.35;;
70920;SDS011;58572;48.110;19.838;2023-08-31T01:03:58;6.22;;;4.05;;
70920;SDS011;58572;48.110;19.838;2023-08-31T01:06:49;5.88;;;3.40;;
70920;SDS011;58572;48.110;19.838;2023-08-31T01:09:36;7.60;;;3.22;;
70920;SDS011;58572;48.110;19.838;2023-08-31T01:12:18;6.93;;;3.50;;
70920;SDS011;58572;48.110;19.838;2023-08-31T01:15:10;5.20;;;3.20;;
70920;SDS011;58572;48.110;19.838;2023-08-31T01:17:48;5.90;;;3.28;;
70920;SDS011;58572;48.110;19.838;2023-08-31T01:20:28;6.13;;;3.83;;
70920;SDS011;58572;48.110;19.838;2023-08-31T01:23:12;7.45;;;3.90;;
70920;SDS011;58572;48.110;19.838;2023-08-31T01:25:52;6.88;;;4.20;;
70920;SDS011;58572;48.110;19.838;2023-08-31T01:28:29;8.18;;;4.30;;
70920;SDS011;58572;48.110;19.838;2023-08-31T01:31:04;7.00;;;4.28;;
70920;SDS011;58572;48.110;19.838;2023-08-31T01:33:38;6.22;;;4.40;;
70920;SDS011;58572;48.110;19.838;2023-08-31T01:36:17;6.43;;;4.07;;
70920;SDS011;58572;48.110;19.838;2023-08-31T01:38:57;7.38;;;4.30;;
70920;SDS011;58572;48.110;19.838;2023-08-31T01:41:38;7.82;;;4.35;;
70920;SDS011;58572;48.110;19.838;2023-08-31T01:44:17;7.50;;;4.32;;
70920;SDS011;58572;48.110;19.838;2023-08-31T01:46:53;6.88;;;4.30;;
70920;SDS011;58572;48.110;19.838;2023-08-31T01:49:28;7.03;;;4.28;;
70920;SDS011;58572;48.110;19.838;2023-08-31T01:54:45;6.65;;;4.13;;
70920;SDS011;58572;48.110;19.838;2023-08-31T01:57:26;6.00;;;3.97;;
70920;SDS011;58572;48.110;19.838;2023-08-31T01:59:59;7.47;;;4.30;;
70920;SDS011;58572;48.110;19.838;2023-08-31T02:02:34;7.22;;;5.22;;
70920;SDS011;58572;48.110;19.838;2023-08-31T02:05:09;7.57;;;4.55;;
70920;SDS011;58572;48.110;19.838;2023-08-31T02:07:41;7.18;;;4.68;;
70920;SDS011;58572;48.110;19.838;2023-08-31T02:13:44;6.88;;;4.38;;
70920;SDS011;58572;48.110;19.838;2023-08-31T02:16:16;9.05;;;5.25;;
70920;SDS011;58572;48.110;19.838;2023-08-31T02:18:51;12.65;;;5.38;;
70920;SDS011;58572;48.110;19.838;2023-08-31T02:21:25;10.13;;;4.70;;
70920;SDS011;58572;48.110;19.838;2023-08-31T02:23:57;6.68;;;4.93;;
70920;SDS011;58572;48.110;19.838;2023-08-31T02:26:30;11.07;;;4.53;;
70920;SDS011;58572;48.110;19.838;2023-08-31T02:29:07;7.25;;;5.20;;
70920;SDS011;58572;48.110;19.838;2023-08-31T02:31:40;6.40;;;5.38;;
70920;SDS011;58572;48.110;19.838;2023-08-31T02:34:16;7.60;;;5.35;;
70920;SDS011;58572;48.110;19.838;2023-08-31T02:36:49;6.63;;;5.18;;
70920;SDS011;58572;48.110;19.838;2023-08-31T02:39:23;7.63;;;5.50;;
70920;SDS011;58572;48.110;19.838;2023-08-31T02:41:57;9.23;;;5.72;;
70920;SDS011;58572;48.110;19.838;2023-08-31T02:44:33;10.32;;;5.70;;
70920;SDS011;58572;48.110;19.838;2023-08-31T02:47:05;9.00;;;6.95;;
70920;SDS011;58572;48.110;19.838;2023-08-31T02:49:37;7.88;;;6.13;;
70920;SDS011;58572;48.110;19.838;2023-08-31T02:52:08;10.40;;;6.60;;
70920;SDS011;58572;48.110;19.838;2023-08-31T02:54:35;11.95;;;6.85;;
70920;SDS011;58572;48.110;19.838;2023-08-31T02:57:02;10.02;;;7.00;;
70920;SDS011;58572;48.110;19.838;2023-08-31T03:02:00;9.85;;;6.13;;
70920;SDS011;58572;48.110;19.838;2023-08-31T03:06:56;8.88;;;6.70;;
70920;SDS011;58572;48.110;19.838;2023-08-31T03:09:23;10.10;;;6.95;;
70920;SDS011;58572;48.110;19.838;2023-08-31T03:11:50;11.88;;;6.40;;
70920;SDS011;58572;48.110;19.838;2023-08-31T03:14:17;11.32;;;7.03;;
70920;SDS011;58572;48.110;19.838;2023-08-31T03:16:46;9.70;;;6.20;;
70920;SDS011;58572;48.110;19.838;2023-08-31T03:19:14;9.43;;;6.88;;
70920;SDS011;58572;48.110;19.838;2023-08-31T03:21:41;12.02;;;6.63;;
70920;SDS011;58572;48.110;19.838;2023-08-31T03:24:08;11.32;;;7.25;;
70920;SDS011;58572;48.110;19.838;2023-08-31T03:26:35;10.95;;;7.00;;
70920;SDS011;58572;48.110;19.838;2023-08-31T03:29:02;10.52;;;6.80;;
70920;SDS011;58572;48.110;19.838;2023-08-31T03:31:30;9.85;;;7.00;;
70920;SDS011;58572;48.110;19.838;2023-08-31T03:33:59;9.50;;;7.00;;
70920;SDS011;58572;48.110;19.838;2023-08-31T03:36:26;9.70;;;7.32;;
70920;SDS011;58572;48.110;19.838;2023-08-31T03:38:53;11.38;;;6.80;;
70920;SDS011;58572;48.110;19.838;2023-08-31T03:41:20;9.05;;;7.05;;
70920;SDS011;58572;48.110;19.838;2023-08-31T03:43:47;11.15;;;7.28;;
70920;SDS011;58572;48.110;19.838;2023-08-31T03:46:15;13.02;;;7.10;;
70920;SDS011;58572;48.110;19.838;2023-08-31T03:48:42;11.80;;;6.43;;
70920;SDS011;58572;48.110;19.838;2023-08-31T03:51:10;10.70;;;7.45;;
70920;SDS011;58572;48.110;19.838;2023-08-31T03:53:37;9.63;;;5.93;;
70920;SDS011;58572;48.110;19.838;2023-08-31T03:56:04;11.50;;;7.28;;
70920;SDS011;58572;48.110;19.838;2023-08-31T03:58:32;9.57;;;7.03;;
70920;SDS011;58572;48.110;19.838;2023-08-31T04:00:59;11.25;;;6.80;;
70920;SDS011;58572;48.110;19.838;2023-08-31T04:03:26;12.73;;;6.93;;
70920;SDS011;58572;48.110;19.838;2023-08-31T04:05:54;10.20;;;6.63;;
70920;SDS011;58572;48.110;19.838;2023-08-31T04:08:22;10.35;;;5.93;;
70920;SDS011;58572;48.110;19.838;2023-08-31T04:10:49;9.60;;;6.03;;
70920;SDS011;58572;48.110;19.838;2023-08-31T04:13:17;10.73;;;6.38;;
70920;SDS011;58572;48.110;19.838;2023-08-31T04:15:44;9.15;;;6.43;;
70920;SDS011;58572;48.110;19.838;2023-08-31T04:18:11;9.15;;;5.90;;
70920;SDS011;58572;48.110;19.838;2023-08-31T04:20:38;8.35;;;6.15;;
70920;SDS011;58572;48.110;19.838;2023-08-31T04:25:33;9.18;;;5.50;;
70920;SDS011;58572;48.110;19.838;2023-08-31T04:28:01;9.82;;;5.63;;
70920;SDS011;58572;48.110;19.838;2023-08-31T04:30:28;9.32;;;5.57;;
70920;SDS011;58572;48.110;19.838;2023-08-31T04:32:56;9.35;;;5.28;;
70920;SDS011;58572;48.110;19.838;2023-08-31T04:35:23;9.23;;;5.75;;
70920;SDS011;58572;48.110;19.838;2023-08-31T04:37:50;10.20;;;6.85;;
70920;SDS011;58572;48.110;19.838;2023-08-31T04:40:17;9.68;;;5.93;;
70920;SDS011;58572;48.110;19.838;2023-08-31T04:42:46;9.88;;;6.43;;
70920;SDS011;58572;48.110;19.838;2023-08-31T04:45:13;12.75;;;6.75;;
70920;SDS011;58572;48.110;19.838;2023-08-31T04:50:08;12.10;;;6.97;;
70920;SDS011;58572;48.110;19.838;2023-08-31T04:52:36;10.82;;;7.32;;
70920;SDS011;58572;48.110;19.838;2023-08-31T04:55:05;11.05;;;7.65;;
70920;SDS011;58572;48.110;19.838;2023-08-31T04:57:34;9.77;;;6.95;;
70920;SDS011;58572;48.110;19.838;2023-08-31T05:00:03;11.18;;;8.00;;
70920;SDS011;58572;48.110;19.838;2023-08-31T05:02:32;11.27;;;7.45;;
70920;SDS011;58572;48.110;19.838;2023-08-31T05:04:59;14.20;;;7.75;;
70920;SDS011;58572;48.110;19.838;2023-08-31T05:07:26;10.60;;;7.25;;
70920;SDS011;58572;48.110;19.838;2023-08-31T05:09:53;14.23;;;8.07;;
70920;SDS011;58572;48.110;19.838;2023-08-31T05:12:21;11.63;;;7.80;;
70920;SDS011;58572;48.110;19.838;2023-08-31T05:14:48;11.18;;;7.72;;
70920;SDS011;58572;48.110;19.838;2023-08-31T05:17:17;12.00;;;7.80;;
70920;SDS011;58572;48.110;19.838;2023-08-31T05:19:44;12.07;;;8.27;;
70920;SDS011;58572;48.110;19.838;2023-08-31T05:22:12;14.02;;;7.75;;
70920;SDS011;58572;48.110;19.838;2023-08-31T05:24:39;11.88;;;7.78;;
70920;SDS011;58572;48.110;19.838;2023-08-31T05:27:06;12.30;;;8.73;;
70920;SDS011;58572;48.110;19.838;2023-08-31T05:29:33;12.48;;;8.63;;
70920;SDS011;58572;48.110;19.838;2023-08-31T05:32:01;14.15;;;9.52;;
70920;SDS011;58572;48.110;19.838;2023-08-31T05:34:29;14.43;;;9.93;;
70920;SDS011;58572;48.110;19.838;2023-08-31T05:36:59;15.07;;;9.70;;
70920;SDS011;58572;48.110;19.838;2023-08-31T05:39:27;14.20;;;9.77;;
70920;SDS011;58572;48.110;19.838;2023-08-31T05:41:54;12.70;;;8.98;;
70920;SDS011;58572;48.110;19.838;2023-08-31T05:44:22;15.38;;;11.02;;
70920;SDS011;58572;48.110;19.838;2023-08-31T05:46:49;12.75;;;9.38;;
70920;SDS011;58572;48.110;19.838;2023-08-31T05:49:16;12.57;;;9.50;;
70920;SDS011;58572;48.110;19.838;2023-08-31T05:51:45;12.02;;;9.10;;
70920;SDS011;58572;48.110;19.838;2023-08-31T05:54:12;11.77;;;8.98;;
70920;SDS011;58572;48.110;19.838;2023-08-31T05:56:40;12.70;;;9.25;;
70920;SDS011;58572;48.110;19.838;2023-08-31T05:59:07;13.57;;;9.45;;
70920;SDS011;58572;48.110;19.838;2023-08-31T06:01:34;11.32;;;8.60;;
70920;SDS011;58572;48.110;19.838;2023-08-31T06:06:29;10.20;;;7.53;;
70920;SDS011;58572;48.110;19.838;2023-08-31T06:08:59;10.18;;;7.68;;
70920;SDS011;58572;48.110;19.838;2023-08-31T06:11:26;10.65;;;7.47;;
70920;SDS011;58572;48.110;19.838;2023-08-31T06:13:53;10.30;;;8.32;;
70920;SDS011;58572;48.110;19.838;2023-08-31T06:16:21;10.45;;;7.70;;
70920;SDS011;58572;48.110;19.838;2023-08-31T06:18:48;10.93;;;7.32;;
70920;SDS011;58572;48.110;19.838;2023-08-31T06:21:15;10.68;;;6.70;;
70920;SDS011;58572;48.110;19.838;2023-08-31T06:23:42;10.45;;;7.05;;
70920;SDS011;58572;48.110;19.838;2023-08-31T06:26:11;8.82;;;6.32;;
70920;SDS011;58572;48.110;19.838;2023-08-31T06:28:38;10.35;;;6.53;;
70920;SDS011;58572;48.110;19.838;2023-08-31T06:31:05;12.27;;;7.03;;
70920;SDS011;58572;48.110;19.838;2023-08-31T06:33:32;7.47;;;6.07;;
70920;SDS011;58572;48.110;19.838;2023-08-31T06:35:59;8.70;;;6.07;;
70920;SDS011;58572;48.110;19.838;2023-08-31T06:38:26;8.35;;;6.40;;
70920;SDS011;58572;48.110;19.838;2023-08-31T06:40:53;7.82;;;5.90;;
70920;SDS011;58572;48.110;19.838;2023-08-31T06:43:25;7.65;;;5.65;;
70920;SDS011;58572;48.110;19.838;2023-08-31T06:45:52;7.25;;;5.68;;
70920;SDS011;58572;48.110;19.838;2023-08-31T06:48:20;7.93;;;6.03;;
70920;SDS011;58572;48.110;19.838;2023-08-31T06:50:47;8.88;;;5.47;;
70920;SDS011;58572;48.110;19.838;2023-08-31T06:53:14;7.65;;;5.97;;
70920;SDS011;58572;48.110;19.838;2023-08-31T06:55:41;9.27;;;6.32;;
70920;SDS011;58572;48.110;19.838;2023-08-31T06:58:09;10.93;;;6.30;;
70920;SDS011;58572;48.110;19.838;2023-08-31T07:00:37;8.75;;;6.03;;
70920;SDS011;58572;48.110;19.838;2023-08-31T07:03:04;8.45;;;6.65;;
70920;SDS011;58572;48.110;19.838;2023-08-31T07:05:33;7.60;;;6.10;;
70920;SDS011;58572;48.110;19.838;2023-08-31T07:08:01;9.40;;;6.53;;
70920;SDS011;58572;48.110;19.838;2023-08-31T07:10:29;8.88;;;6.47;;
70920;SDS011;58572;48.110;19.838;2023-08-31T07:15:23;10.23;;;5.88;;
70920;SDS011;58572;48.110;19.838;2023-08-31T07:17:52;9.77;;;7.28;;
70920;SDS011;58572;48.110;19.838;2023-08-31T07:20:19;8.15;;;6.70;;
70920;SDS011;58572;48.110;19.838;2023-08-31T07:22:46;9.35;;;7.10;;
70920;SDS011;58572;48.110;19.838;2023-08-31T07:25:14;8.63;;;6.57;;
70920;SDS011;58572;48.110;19.838;2023-08-31T07:27:41;11.30;;;7.70;;
70920;SDS011;58572;48.110;19.838;2023-08-31T07:30:09;8.90;;;7.05;;
70920;SDS011;58572;48.110;19.838;2023-08-31T07:32:36;8.82;;;6.32;;
70920;SDS011;58572;48.110;19.838;2023-08-31T07:37:32;9.95;;;7.20;;
70920;SDS011;58572;48.110;19.838;2023-08-31T07:40:00;8.38;;;6.53;;
70920;SDS011;58572;48.110;19.838;2023-08-31T07:42:31;7.45;;;6.18;;
70920;SDS011;58572;48.110;19.838;2023-08-31T07:44:58;8.07;;;6.20;;
70920;SDS011;58572;48.110;19.838;2023-08-31T07:47:26;7.90;;;5.43;;
70920;SDS011;58572;48.110;19.838;2023-08-31T07:49:53;7.30;;;5.35;;
70920;SDS011;58572;48.110;19.838;2023-08-31T07:52:21;7.60;;;5.47;;
70920;SDS011;58572;48.110;19.838;2023-08-31T07:54:49;7.90;;;5.82;;
70920;SDS011;58572;48.110;19.838;2023-08-31T07:57:16;8.35;;;6.03;;
70920;SDS011;58572;48.110;19.838;2023-08-31T07:59:43;8.52;;;6.18;;
70920;SDS011;58572;48.110;19.838;2023-08-31T08:02:10;7.22;;;5.65;;
70920;SDS011;58572;48.110;19.838;2023-08-31T08:04:37;6.15;;;5.55;;
70920;SDS011;58572;48.110;19.838;2023-08-31T08:07:04;7.55;;;5.82;;
70920;SDS011;58572;48.110;19.838;2023-08-31T08:09:33;7.38;;;5.28;;
70920;SDS011;58572;48.110;19.838;2023-08-31T08:12:00;6.35;;;4.78;;
70920;SDS011;58572;48.110;19.838;2023-08-31T08:14:28;8.57;;;4.55;;
70920;SDS011;58572;48.110;19.838;2023-08-31T08:16:55;6.93;;;5.40;;
70920;SDS011;58572;48.110;19.838;2023-08-31T08:19:22;6.50;;;4.93;;
70920;SDS011;58572;48.110;19.838;2023-08-31T08:21:50;6.78;;;4.45;;
70920;SDS011;58572;48.110;19.838;2023-08-31T08:24:17;6.18;;;5.00;;
70920;SDS011;58572;48.110;19.838;2023-08-31T08:26:45;6.90;;;5.43;;
70920;SDS011;58572;48.110;19.838;2023-08-31T08:29:13;5.68;;;4.82;;
70920;SDS011;58572;48.110;19.838;2023-08-31T08:31:41;5.07;;;3.90;;
70920;SDS011;58572;48.110;19.838;2023-08-31T08:34:08;4.53;;;3.70;;
70920;SDS011;58572;48.110;19.838;2023-08-31T08:36:35;5.72;;;4.68;;
70920;SDS011;58572;48.110;19.838;2023-08-31T08:39:03;6.50;;;4.18;;
70920;SDS011;58572;48.110;19.838;2023-08-31T08:41:30;5.22;;;4.10;;
70920;SDS011;58572;48.110;19.838;2023-08-31T08:44:02;5.78;;;4.60;;
70920;SDS011;58572;48.110;19.838;2023-08-31T08:46:31;5.47;;;3.97;;
70920;SDS011;58572;48.110;19.838;2023-08-31T08:48:59;6.13;;;4.45;;
70920;SDS011;58572;48.110;19.838;2023-08-31T08:51:28;5.57;;;4.53;;
70920;SDS011;58572;48.110;19.838;2023-08-31T08:53:57;5.63;;;4.20;;
70920;SDS011;58572;48.110;19.838;2023-08-31T08:56:26;5.50;;;4.15;;
70920;SDS011;58572;48.110;19.838;2023-08-31T08:58:53;5.78;;;4.03;;
70920;SDS011;58572;48.110;19.838;2023-08-31T09:01:24;5.10;;;4.18;;
70920;SDS011;58572;48.110;19.838;2023-08-31T09:03:52;5.15;;;3.95;;
70920;SDS011;58572;48.110;19.838;2023-08-31T09:06:19;5.28;;;4.20;;
70920;SDS011;58572;48.110;19.838;2023-08-31T09:08:53;4.78;;;3.60;;
70920;SDS011;58572;48.110;19.838;2023-08-31T09:11:21;4.90;;;3.92;;
70920;SDS011;58572;48.110;19.838;2023-08-31T09:13:49;3.72;;;3.10;;
70920;SDS011;58572;48.110;19.838;2023-08-31T09:16:25;5.10;;;3.70;;
70920;SDS011;58572;48.110;19.838;2023-08-31T09:18:53;4.45;;;3.30;;
70920;SDS011;58572;48.110;19.838;2023-08-31T09:21:20;5.43;;;4.07;;
70920;SDS011;58572;48.110;19.838;2023-08-31T09:23:55;5.88;;;3.90;;
70920;SDS011;58572;48.110;19.838;2023-08-31T09:26:23;4.35;;;3.83;;
70920;SDS011;58572;48.110;19.838;2023-08-31T09:28:50;5.45;;;3.40;;
70920;SDS011;58572;48.110;19.838;2023-08-31T09:31:18;4.30;;;3.50;;
70920;SDS011;58572;48.110;19.838;2023-08-31T09:33:50;5.35;;;3.70;;
70920;SDS011;58572;48.110;19.838;2023-08-31T09:36:19;6.20;;;3.15;;
70920;SDS011;58572;48.110;19.838;2023-08-31T09:38:47;4.88;;;3.33;;
70920;SDS011;58572;48.110;19.838;2023-08-31T09:41:14;4.78;;;3.05;;
70920;SDS011;58572;48.110;19.838;2023-08-31T09:43:41;4.57;;;3.03;;
70920;SDS011;58572;48.110;19.838;2023-08-31T09:46:09;4.60;;;3.30;;
70920;SDS011;58572;48.110;19.838;2023-08-31T09:48:37;5.63;;;3.47;;
70920;SDS011;58572;48.110;19.838;2023-08-31T09:51:09;4.03;;;3.03;;
70920;SDS011;58572;48.110;19.838;2023-08-31T09:53:37;3.40;;;2.50;;
70920;SDS011;58572;48.110;19.838;2023-08-31T09:56:05;3.97;;;3.15;;
70920;SDS011;58572;48.110;19.838;2023-08-31T09:58:32;5.22;;;3.05;;
70920;SDS011;58572;48.110;19.838;2023-08-31T10:01:00;5.22;;;3.20;;
70920;SDS011;58572;48.110;19.838;2023-08-31T10:05:54;4.15;;;2.85;;
70920;SDS011;58572;48.110;19.838;2023-08-31T10:08:24;4.60;;;3.55;;
70920;SDS011;58572;48.110;19.838;2023-08-31T10:10:56;4.85;;;3.15;;
70920;SDS011;58572;48.110;19.838;2023-08-31T10:13:25;4.90;;;3.50;;
70920;SDS011;58572;48.110;19.838;2023-08-31T10:15:56;4.15;;;3.35;;
70920;SDS011;58572;48.110;19.838;2023-08-31T10:18:24;6.00;;;3.30;;
70920;SDS011;58572;48.110;19.838;2023-08-31T10:20:51;6.57;;;2.95;;
70920;SDS011;58572;48.110;19.838;2023-08-31T10:23:19;4.57;;;3.08;;
70920;SDS011;58572;48.110;19.838;2023-08-31T10:26:02;5.60;;;2.80;;
70920;SDS011;58572;48.110;19.838;2023-08-31T10:28:38;6.25;;;3.03;;
70920;SDS011;58572;48.110;19.838;2023-08-31T10:31:07;4.22;;;3.10;;
70920;SDS011;58572;48.110;19.838;2023-08-31T10:33:39;3.60;;;2.75;;
70920;SDS011;58572;48.110;19.838;2023-08-31T10:36:11;5.47;;;2.88;;
70920;SDS011;58572;48.110;19.838;2023-08-31T10:38:40;5.47;;;2.33;;
70920;SDS011;58572;48.110;19.838;2023-08-31T10:41:19;3.45;;;1.92;;
70920;SDS011;58572;48.110;19.838;2023-08-31T10:43:48;3.85;;;2.50;;
70920;SDS011;58572;48.110;19.838;2023-08-31T10:46:17;3.85;;;2.55;;
70920;SDS011;58572;48.110;19.838;2023-08-31T10:48:52;4.05;;;2.70;;
70920;SDS011;58572;48.110;19.838;2023-08-31T10:51:24;4.68;;;2.60;;
70920;SDS011;58572;48.110;19.838;2023-08-31T10:53:52;3.55;;;2.58;;
70920;SDS011;58572;48.110;19.838;2023-08-31T10:56:53;4.05;;;2.58;;
70920;SDS011;58572;48.110;19.838;2023-08-31T10:59:40;4.03;;;2.53;;
70920;SDS011;58572;48.110;19.838;2023-08-31T11:02:26;3.90;;;2.75;;
70920;SDS011;58572;48.110;19.838;2023-08-31T11:04:54;3.55;;;2.15;;
70920;SDS011;58572;48.110;19.838;2023-08-31T11:07:23;5.43;;;3.00;;
70920;SDS011;58572;48.110;19.838;2023-08-31T11:09:51;4.40;;;1.83;;
70920;SDS011;58572;48.110;19.838;2023-08-31T11:12:34;3.47;;;2.47;;
70920;SDS011;58572;48.110;19.838;2023-08-31T11:15:01;3.80;;;2.60;;
70920;SDS011;58572;48.110;19.838;2023-08-31T11:17:29;3.78;;;2.45;;
70920;SDS011;58572;48.110;19.838;2023-08-31T11:19:57;3.72;;;2.22;;
70920;SDS011;58572;48.110;19.838;2023-08-31T11:24:51;4.28;;;2.45;;
70920;SDS011;58572;48.110;19.838;2023-08-31T11:27:19;3.92;;;2.22;;
70920;SDS011;58572;48.110;19.838;2023-08-31T11:29:48;3.80;;;2.20;;
70920;SDS011;58572;48.110;19.838;2023-08-31T11:32:15;4.10;;;2.63;;
70920;SDS011;58572;48.110;19.838;2023-08-31T11:34:43;3.15;;;2.13;;
70920;SDS011;58572;48.110;19.838;2023-08-31T11:37:12;3.03;;;2.17;;
70920;SDS011;58572;48.110;19.838;2023-08-31T11:39:41;3.08;;;2.00;;
70920;SDS011;58572;48.110;19.838;2023-08-31T11:42:09;5.30;;;2.47;;
70920;SDS011;58572;48.110;19.838;2023-08-31T11:44:36;3.17;;;1.85;;
70920;SDS011;58572;48.110;19.838;2023-08-31T11:47:05;3.65;;;2.10;;
70920;SDS011;58572;48.110;19.838;2023-08-31T11:49:32;3.15;;;1.90;;
70920;SDS011;58572;48.110;19.838;2023-08-31T11:52:00;3.60;;;2.13;;
70920;SDS011;58572;48.110;19.838;2023-08-31T11:54:27;3.13;;;2.05;;
70920;SDS011;58572;48.110;19.838;2023-08-31T11:56:55;2.97;;;1.98;;
70920;SDS011;58572;48.110;19.838;2023-08-31T12:01:49;3.20;;;1.70;;
70920;SDS011;58572;48.110;19.838;2023-08-31T12:04:19;3.58;;;2.00;;
70920;SDS011;58572;48.110;19.838;2023-08-31T12:06:49;3.65;;;1.98;;
70920;SDS011;58572;48.110;19.838;2023-08-31T12:09:18;3.13;;;1.85;;
70920;SDS011;58572;48.110;19.838;2023-08-31T12:11:50;3.08;;;2.00;;
70920;SDS011;58572;48.110;19.838;2023-08-31T12:14:18;3.85;;;1.92;;
70920;SDS011;58572;48.110;19.838;2023-08-31T12:16:46;3.75;;;1.90;;
70920;SDS011;58572;48.110;19.838;2023-08-31T12:19:14;3.60;;;2.10;;
70920;SDS011;58572;48.110;19.838;2023-08-31T12:24:10;3.35;;;2.10;;
70920;SDS011;58572;48.110;19.838;2023-08-31T12:26:38;3.20;;;1.88;;
70920;SDS011;58572;48.110;19.838;2023-08-31T12:29:05;4.95;;;2.00;;
70920;SDS011;58572;48.110;19.838;2023-08-31T12:33:59;4.75;;;1.70;;
70920;SDS011;58572;48.110;19.838;2023-08-31T12:36:31;3.67;;;1.90;;
70920;SDS011;58572;48.110;19.838;2023-08-31T12:39:00;3.90;;;2.88;;
70920;SDS011;58572;48.110;19.838;2023-08-31T12:41:31;3.72;;;1.90;;
70920;SDS011;58572;48.110;19.838;2023-08-31T12:43:58;5.25;;;1.98;;
70920;SDS011;58572;48.110;19.838;2023-08-31T12:46:25;3.67;;;1.60;;
70920;SDS011;58572;48.110;19.838;2023-08-31T12:51:19;2.50;;;1.75;;
70920;SDS011;58572;48.110;19.838;2023-08-31T12:56:15;3.75;;;1.98;;
70920;SDS011;58572;48.110;19.838;2023-08-31T12:58:47;3.22;;;1.90;;
70920;SDS011;58572;48.110;19.838;2023-08-31T13:01:15;5.57;;;1.88;;
70920;SDS011;58572;48.110;19.838;2023-08-31T13:06:09;2.80;;;1.80;;
70920;SDS011;58572;48.110;19.838;2023-08-31T13:08:36;3.33;;;1.95;;
70920;SDS011;58572;48.110;19.838;2023-08-31T13:11:04;2.78;;;1.73;;
70920;SDS011;58572;48.110;19.838;2023-08-31T13:13:33;3.08;;;1.70;;
70920;SDS011;58572;48.110;19.838;2023-08-31T13:16:00;2.60;;;1.70;;
70920;SDS011;58572;48.110;19.838;2023-08-31T13:20:55;3.53;;;1.58;;
70920;SDS011;58572;48.110;19.838;2023-08-31T13:23:22;4.25;;;1.98;;
70920;SDS011;58572;48.110;19.838;2023-08-31T13:25:50;3.85;;;1.95;;
70920;SDS011;58572;48.110;19.838;2023-08-31T13:28:17;3.42;;;1.90;;
70920;SDS011;58572;48.110;19.838;2023-08-31T13:30:46;2.50;;;1.42;;
70920;SDS011;58572;48.110;19.838;2023-08-31T13:33:13;3.75;;;1.92;;
70920;SDS011;58572;48.110;19.838;2023-08-31T13:38:07;3.10;;;1.52;;
70920;SDS011;58572;48.110;19.838;2023-08-31T13:43:01;3.00;;;1.42;;
70920;SDS011;58572;48.110;19.838;2023-08-31T13:45:29;2.90;;;1.73;;
70920;SDS011;58572;48.110;19.838;2023-08-31T13:47:58;3.17;;;1.60;;
70920;SDS011;58572;48.110;19.838;2023-08-31T13:50:26;3.05;;;1.70;;
70920;SDS011;58572;48.110;19.838;2023-08-31T13:52:53;2.80;;;1.67;;
70920;SDS011;58572;48.110;19.838;2023-08-31T13:57:48;3.03;;;1.50;;
70920;SDS011;58572;48.110;19.838;2023-08-31T14:00:16;3.47;;;1.55;;
70920;SDS011;58572;48.110;19.838;2023-08-31T14:02:43;2.90;;;1.40;;
70920;SDS011;58572;48.110;19.838;2023-08-31T14:07:39;2.92;;;1.73;;
70920;SDS011;58572;48.110;19.838;2023-08-31T14:10:07;3.35;;;1.70;;
70920;SDS011;58572;48.110;19.838;2023-08-31T14:12:35;2.40;;;1.40;;
70920;SDS011;58572;48.110;19.838;2023-08-31T14:15:04;3.25;;;1.58;;
70920;SDS011;58572;48.110;19.838;2023-08-31T14:17:32;2.65;;;1.45;;
70920;SDS011;58572;48.110;19.838;2023-08-31T14:19:59;2.85;;;1.63;;
70920;SDS011;58572;48.110;19.838;2023-08-31T14:22:32;2.90;;;1.70;;
70920;SDS011;58572;48.110;19.838;2023-08-31T14:24:59;5.38;;;1.67;;
70920;SDS011;58572;48.110;19.838;2023-08-31T14:27:27;2.70;;;1.52;;
70920;SDS011;58572;48.110;19.838;2023-08-31T14:29:55;3.38;;;1.58;;
70920;SDS011;58572;48.110;19.838;2023-08-31T14:32:23;2.95;;;1.67;;
70920;SDS011;58572;48.110;19.838;2023-08-31T14:34:50;2.40;;;1.63;;
70920;SDS011;58572;48.110;19.838;2023-08-31T14:37:20;2.92;;;1.60;;
70920;SDS011;58572;48.110;19.838;2023-08-31T14:39:49;2.33;;;1.50;;
70920;SDS011;58572;48.110;19.838;2023-08-31T14:42:16;3.72;;;1.73;;
70920;SDS011;58572;48.110;19.838;2023-08-31T14:44:45;3.92;;;1.58;;
70920;SDS011;58572;48.110;19.838;2023-08-31T14:49:39;2.88;;;1.55;;
70920;SDS011;58572;48.110;19.838;2023-08-31T14:52:06;2.47;;;1.40;;
70920;SDS011;58572;48.110;19.838;2023-08-31T14:54:34;5.50;;;1.50;;
70920;SDS011;58572;48.110;19.838;2023-08-31T14:57:03;3.00;;;1.73;;
70920;SDS011;58572;48.110;19.838;2023-08-31T14:59:31;2.97;;;1.75;;
70920;SDS011;58572;48.110;19.838;2023-08-31T15:01:58;3.25;;;1.88;;
70920;SDS011;58572;48.110;19.838;2023-08-31T15:04:30;2.53;;;1.30;;
70920;SDS011;58572;48.110;19.838;2023-08-31T15:09:24;3.20;;;1.83;;
70920;SDS011;58572;48.110;19.838;2023-08-31T15:11:52;3.00;;;1.75;;
70920;SDS011;58572;48.110;19.838;2023-08-31T15:14:20;3.30;;;1.55;;
70920;SDS011;58572;48.110;19.838;2023-08-31T15:16:47;4.03;;;1.80;;
70920;SDS011;58572;48.110;19.838;2023-08-31T15:21:41;3.35;;;1.63;;
70920;SDS011;58572;48.110;19.838;2023-08-31T15:26:35;2.97;;;1.80;;
70920;SDS011;58572;48.110;19.838;2023-08-31T15:29:03;2.58;;;1.70;;
70920;SDS011;58572;48.110;19.838;2023-08-31T15:31:31;2.85;;;1.75;;
70920;SDS011;58572;48.110;19.838;2023-08-31T15:33:59;3.08;;;1.60;;
70920;SDS011;58572;48.110;19.838;2023-08-31T15:36:26;2.72;;;1.80;;
70920;SDS011;58572;48.110;19.838;2023-08-31T15:38:53;4.47;;;2.13;;
70920;SDS011;58572;48.110;19.838;2023-08-31T15:41:21;3.35;;;1.77;;
70920;SDS011;58572;48.110;19.838;2023-08-31T15:43:48;3.05;;;1.63;;
70920;SDS011;58572;48.110;19.838;2023-08-31T15:46:15;4.35;;;1.90;;
70920;SDS011;58572;48.110;19.838;2023-08-31T15:48:45;2.88;;;1.70;;
70920;SDS011;58572;48.110;19.838;2023-08-31T15:51:14;3.47;;;1.88;;